Time;durP1;ratioP1;P1;durP2;ratioP2;P2;SDS_P1;SDS_P2;PMS_P1;PMS_P2;Temp;Humidity;BMP_temperature;BMP_pressure;BME280_temperature;BME280_humidity;BME280_pressure;Samples;Min_cycle;Max_cycle;Signal;HPM_P1;HPM_P2
2021/07/30 00:02:21;;;;;;;1.60;1.50;;;;;;;;;;5073122;28;20108;-62
2021/07/30 00:07:16;;;;;;;1.55;1.42;;;;;;;;;;5068020;28;20045;-61
2021/07/30 00:09:41;;;;;;;1.98;1.45;;;;;;;;;;5072647;28;20103;-62
2021/07/30 00:12:09;;;;;;;3.25;1.63;;;;;;;;;;5072269;28;20033;-62
2021/07/30 00:14:34;;;;;;;2.15;1.70;;;;;;;;;;5065434;28;20033;-61
2021/07/30 00:17:00;;;;;;;1.73;1.30;;;;;;;;;;5053065;28;20381;-58
2021/07/30 00:19:25;;;;;;;2.00;1.83;;;;;;;;;;5053579;28;20127;-62
2021/07/30 00:21:50;;;;;;;1.77;1.30;;;;;;;;;;5072592;28;20024;-60
2021/07/30 00:24:16;;;;;;;3.13;1.67;;;;;;;;;;5072914;28;20462;-61
2021/07/30 00:26:41;;;;;;;3.22;1.90;;;;;;;;;;5054932;28;20012;-60
2021/07/30 00:29:06;;;;;;;1.60;1.50;;;;;;;;;;5072578;28;20473;-65
2021/07/30 00:31:32;;;;;;;1.90;1.50;;;;;;;;;;5072395;28;20107;-61
2021/07/30 00:33:57;;;;;;;2.60;1.90;;;;;;;;;;5072865;28;20476;-61
2021/07/30 00:36:22;;;;;;;2.78;1.98;;;;;;;;;;5072475;28;20020;-59
2021/07/30 00:38:47;;;;;;;2.92;1.90;;;;;;;;;;5072815;28;20366;-60
2021/07/30 00:41:13;;;;;;;4.22;1.70;;;;;;;;;;5072331;28;20047;-63
2021/07/30 00:43:38;;;;;;;3.55;2.22;;;;;;;;;;5072208;28;20024;-60
2021/07/30 00:46:03;;;;;;;2.78;2.00;;;;;;;;;;5050771;28;20017;-61
2021/07/30 00:48:29;;;;;;;1.70;1.60;;;;;;;;;;5052466;28;20025;-61
2021/07/30 00:50:55;;;;;;;4.15;2.20;;;;;;;;;;5061827;28;20055;-60
2021/07/30 00:53:20;;;;;;;3.45;1.88;;;;;;;;;;5072198;28;20056;-60
2021/07/30 00:55:47;;;;;;;2.17;1.98;;;;;;;;;;5054199;28;20110;-60
2021/07/30 00:58:13;;;;;;;3.25;1.98;;;;;;;;;;5072246;28;20032;-61
2021/07/30 01:00:38;;;;;;;2.15;1.83;;;;;;;;;;5054024;28;20028;-61
2021/07/30 01:03:03;;;;;;;3.35;1.83;;;;;;;;;;5053937;28;20462;-61
2021/07/30 01:05:29;;;;;;;2.28;2.00;;;;;;;;;;5071385;28;20057;-62
2021/07/30 01:07:54;;;;;;;2.63;1.98;;;;;;;;;;5069893;28;20039;-61
2021/07/30 01:10:20;;;;;;;2.60;1.70;;;;;;;;;;5072020;28;20024;-61
2021/07/30 01:12:46;;;;;;;2.60;1.90;;;;;;;;;;5053878;28;20116;-62
2021/07/30 01:15:11;;;;;;;4.43;1.90;;;;;;;;;;5071178;28;20365;-61
2021/07/30 01:17:36;;;;;;;2.30;1.83;;;;;;;;;;5071665;28;20021;-61
2021/07/30 01:20:02;;;;;;;2.28;1.90;;;;;;;;;;5071505;28;20012;-61
2021/07/30 01:22:29;;;;;;;2.03;1.48;;;;;;;;;;5072382;28;20020;-61
2021/07/30 01:24:55;;;;;;;3.53;1.92;;;;;;;;;;5072070;28;20024;-61
2021/07/30 01:27:21;;;;;;;3.80;1.50;;;;;;;;;;5071570;28;20027;-60
2021/07/30 01:29:46;;;;;;;5.07;1.90;;;;;;;;;;5072135;28;20095;-61
2021/07/30 01:32:12;;;;;;;2.63;1.75;;;;;;;;;;5071412;28;20396;-60
2021/07/30 01:34:37;;;;;;;4.10;2.28;;;;;;;;;;5071679;28;20024;-61
2021/07/30 01:37:02;;;;;;;3.13;1.67;;;;;;;;;;5071607;28;20024;-61
2021/07/30 01:39:27;;;;;;;2.60;2.10;;;;;;;;;;5053836;28;20017;-61
2021/07/30 01:41:52;;;;;;;2.13;1.92;;;;;;;;;;5070995;28;20408;-61
2021/07/30 01:44:18;;;;;;;2.42;2.13;;;;;;;;;;5071908;28;20031;-62
2021/07/30 01:46:43;;;;;;;2.50;1.90;;;;;;;;;;5051980;28;20108;-61
2021/07/30 01:49:09;;;;;;;2.88;1.85;;;;;;;;;;5071911;28;20422;-61
2021/07/30 01:51:34;;;;;;;3.60;2.10;;;;;;;;;;5071479;28;20532;-60
2021/07/30 01:54:02;;;;;;;3.67;2.10;;;;;;;;;;5071760;28;20028;-62
2021/07/30 01:56:27;;;;;;;2.55;2.00;;;;;;;;;;5071297;28;20021;-62
2021/07/30 01:58:53;;;;;;;3.00;1.80;;;;;;;;;;5071693;28;20036;-61
2021/07/30 02:01:20;;;;;;;2.45;1.77;;;;;;;;;;5074231;28;20087;-62
2021/07/30 02:03:45;;;;;;;2.20;1.92;;;;;;;;;;5075196;28;20069;-60
2021/07/30 02:06:11;;;;;;;2.65;2.10;;;;;;;;;;5075144;28;20131;-61
2021/07/30 02:08:36;;;;;;;1.67;1.58;;;;;;;;;;5075375;28;20021;-60
2021/07/30 02:11:07;;;;;;;2.45;1.88;;;;;;;;;;5074697;28;20021;-59
2021/07/30 02:16:16;;;;;;;2.05;1.80;;;;;;;;;;5075447;28;20031;-62
2021/07/30 02:18:41;;;;;;;3.17;1.70;;;;;;;;;;5075261;28;20025;-60
2021/07/30 02:21:06;;;;;;;3.83;2.08;;;;;;;;;;5074541;28;20047;-61
2021/07/30 02:23:31;;;;;;;3.13;1.83;;;;;;;;;;5057265;28;20098;-62
2021/07/30 02:25:57;;;;;;;4.30;2.17;;;;;;;;;;5074919;28;20024;-60
2021/07/30 02:28:22;;;;;;;2.88;2.00;;;;;;;;;;5075118;28;20055;-60
2021/07/30 02:30:47;;;;;;;2.58;1.88;;;;;;;;;;5074637;28;20151;-61
2021/07/30 02:33:12;;;;;;;3.40;1.90;;;;;;;;;;5074629;28;20367;-61
2021/07/30 02:35:37;;;;;;;2.63;2.42;;;;;;;;;;5074850;28;20029;-61
2021/07/30 02:38:03;;;;;;;2.63;1.90;;;;;;;;;;5074564;28;20016;-61
2021/07/30 02:40:28;;;;;;;3.08;2.00;;;;;;;;;;5074690;28;20036;-62
2021/07/30 02:42:53;;;;;;;3.70;2.40;;;;;;;;;;5056706;28;20017;-61
2021/07/30 02:45:18;;;;;;;3.08;2.05;;;;;;;;;;5074834;28;20032;-61
2021/07/30 02:47:44;;;;;;;3.40;2.60;;;;;;;;;;5074796;28;20457;-61
2021/07/30 02:50:09;;;;;;;3.53;2.47;;;;;;;;;;5074693;28;20043;-61
2021/07/30 02:52:34;;;;;;;3.63;2.45;;;;;;;;;;5058346;28;20098;-61
2021/07/30 02:54:59;;;;;;;5.22;2.42;;;;;;;;;;5074963;28;20035;-61
2021/07/30 02:57:25;;;;;;;4.30;2.17;;;;;;;;;;5073472;28;20021;-61
2021/07/30 02:59:50;;;;;;;4.65;2.80;;;;;;;;;;5074482;28;20020;-61
2021/07/30 03:02:15;;;;;;;3.30;2.95;;;;;;;;;;5074156;28;20009;-62
2021/07/30 03:04:40;;;;;;;2.75;2.42;;;;;;;;;;5074046;28;20028;-61
2021/07/30 03:07:08;;;;;;;2.83;2.63;;;;;;;;;;5073798;28;20032;-63
2021/07/30 03:09:34;;;;;;;4.90;2.80;;;;;;;;;;5074110;28;20017;-62
2021/07/30 03:11:59;;;;;;;3.22;2.70;;;;;;;;;;5071946;28;20535;-63
2021/07/30 03:14:24;;;;;;;3.30;2.50;;;;;;;;;;5056278;28;20067;-64
2021/07/30 03:16:49;;;;;;;4.43;2.65;;;;;;;;;;5073813;28;20492;-62
2021/07/30 03:19:14;;;;;;;5.43;3.20;;;;;;;;;;5074049;28;20024;-63
2021/07/30 03:21:45;;;;;;;2.67;2.47;;;;;;;;;;5073636;28;20048;-62
2021/07/30 03:24:13;;;;;;;5.53;2.67;;;;;;;;;;5074127;28;20048;-62
2021/07/30 03:26:41;;;;;;;4.95;3.17;;;;;;;;;;5056057;28;20362;-62
2021/07/30 03:29:06;;;;;;;4.10;2.83;;;;;;;;;;5074082;28;20021;-62
2021/07/30 03:31:31;;;;;;;4.13;2.72;;;;;;;;;;5073657;28;20091;-62
2021/07/30 03:33:57;;;;;;;2.72;2.53;;;;;;;;;;5053748;28;20021;-62
2021/07/30 03:36:22;;;;;;;3.80;3.00;;;;;;;;;;5055552;28;20390;-62
2021/07/30 03:38:47;;;;;;;5.90;3.00;;;;;;;;;;5073645;28;20017;-63
2021/07/30 03:41:12;;;;;;;3.88;2.90;;;;;;;;;;5073455;28;20111;-63
2021/07/30 03:43:38;;;;;;;3.10;2.72;;;;;;;;;;5073791;28;20055;-63
2021/07/30 03:46:03;;;;;;;5.00;3.15;;;;;;;;;;5073423;28;20024;-63
2021/07/30 03:48:31;;;;;;;4.70;2.90;;;;;;;;;;5073583;28;20020;-64
2021/07/30 03:50:57;;;;;;;3.50;2.30;;;;;;;;;;5073090;28;20060;-64
2021/07/30 03:53:22;;;;;;;3.03;2.65;;;;;;;;;;5073545;28;20052;-62
2021/07/30 03:55:47;;;;;;;3.63;2.45;;;;;;;;;;5073482;28;20020;-62
2021/07/30 03:58:12;;;;;;;4.20;2.58;;;;;;;;;;5073314;28;20479;-63
2021/07/30 04:00:38;;;;;;;3.72;2.45;;;;;;;;;;5052026;28;20021;-62
2021/07/30 04:03:06;;;;;;;2.85;2.45;;;;;;;;;;5052835;28;20028;-63
2021/07/30 04:05:31;;;;;;;4.45;2.67;;;;;;;;;;5072500;28;20068;-63
2021/07/30 04:07:57;;;;;;;4.93;2.70;;;;;;;;;;5055374;28;20059;-63
2021/07/30 04:10:22;;;;;;;3.08;2.58;;;;;;;;;;5073367;28;20040;-63
2021/07/30 04:12:47;;;;;;;3.40;2.92;;;;;;;;;;5072881;28;20017;-61
2021/07/30 04:15:12;;;;;;;4.13;3.30;;;;;;;;;;5072420;28;20059;-63
2021/07/30 04:17:38;;;;;;;4.63;2.53;;;;;;;;;;5072404;28;20031;-63
2021/07/30 04:20:03;;;;;;;3.67;2.97;;;;;;;;;;5072872;28;20103;-62
2021/07/30 04:22:29;;;;;;;3.22;2.88;;;;;;;;;;5072519;28;20027;-64
2021/07/30 04:24:54;;;;;;;2.90;2.53;;;;;;;;;;5072477;28;20021;-61
2021/07/30 04:27:19;;;;;;;5.38;3.08;;;;;;;;;;5072471;28;20443;-61
2021/07/30 04:29:44;;;;;;;4.47;2.70;;;;;;;;;;5072799;28;20029;-61
2021/07/30 04:32:10;;;;;;;4.10;2.95;;;;;;;;;;5072499;28;20017;-61
2021/07/30 04:34:39;;;;;;;3.53;3.22;;;;;;;;;;5072055;28;20051;-60
2021/07/30 04:37:04;;;;;;;4.18;2.58;;;;;;;;;;5072576;28;20062;-60
2021/07/30 04:39:29;;;;;;;3.53;3.10;;;;;;;;;;5072422;28;20424;-61
2021/07/30 04:41:55;;;;;;;3.30;2.97;;;;;;;;;;5072443;28;20017;-60
2021/07/30 04:44:20;;;;;;;4.05;3.15;;;;;;;;;;5072357;28;20016;-61
2021/07/30 04:46:46;;;;;;;3.47;3.22;;;;;;;;;;5072321;28;20047;-61
2021/07/30 04:49:11;;;;;;;3.35;2.80;;;;;;;;;;5072505;28;20016;-60
2021/07/30 04:51:36;;;;;;;5.88;3.05;;;;;;;;;;5071840;28;20146;-60
2021/07/30 04:54:01;;;;;;;6.07;3.38;;;;;;;;;;5072616;28;20479;-60
2021/07/30 04:56:27;;;;;;;3.90;2.92;;;;;;;;;;5072125;28;20026;-60
2021/07/30 04:58:52;;;;;;;5.43;3.50;;;;;;;;;;5072226;28;20031;-61
2021/07/30 05:01:17;;;;;;;4.47;3.15;;;;;;;;;;5072052;28;20112;-60
2021/07/30 05:03:43;;;;;;;5.43;2.53;;;;;;;;;;5071586;28;20463;-60
2021/07/30 05:06:12;;;;;;;4.25;2.95;;;;;;;;;;5071858;28;20076;-61
2021/07/30 05:08:38;;;;;;;5.95;3.17;;;;;;;;;;5072093;28;20036;-61
2021/07/30 05:11:03;;;;;;;3.15;2.83;;;;;;;;;;5071385;28;20108;-60
2021/07/30 05:13:28;;;;;;;4.82;2.90;;;;;;;;;;5071857;28;20299;-62
2021/07/30 05:15:53;;;;;;;5.57;3.53;;;;;;;;;;5071772;28;20020;-62
2021/07/30 05:18:18;;;;;;;3.13;2.40;;;;;;;;;;5072119;28;20173;-63
2021/07/30 05:20:44;;;;;;;4.10;2.78;;;;;;;;;;5071695;28;20028;-61
2021/07/30 05:23:09;;;;;;;4.40;3.40;;;;;;;;;;5071579;28;20051;-61
2021/07/30 05:25:34;;;;;;;6.05;2.72;;;;;;;;;;5053866;28;20027;-60
2021/07/30 05:28:00;;;;;;;3.88;2.90;;;;;;;;;;5071773;28;20016;-61
2021/07/30 05:30:25;;;;;;;7.70;2.70;;;;;;;;;;5071908;28;20021;-60
2021/07/30 05:32:50;;;;;;;2.13;1.98;;;;;;;;;;5071615;28;20087;-61
2021/07/30 05:35:16;;;;;;;5.57;2.95;;;;;;;;;;5070773;28;20017;-63
2021/07/30 05:37:41;;;;;;;3.10;1.92;;;;;;;;;;5072000;28;20056;-61
2021/07/30 05:40:06;;;;;;;5.05;2.03;;;;;;;;;;5071575;28;20023;-60
2021/07/30 05:42:32;;;;;;;4.05;1.70;;;;;;;;;;5071447;28;20029;-61
2021/07/30 05:44:57;;;;;;;4.32;2.50;;;;;;;;;;5072148;28;20395;-63
2021/07/30 05:47:22;;;;;;;5.28;2.33;;;;;;;;;;5071712;28;20048;-61
2021/07/30 05:49:48;;;;;;;4.80;2.78;;;;;;;;;;5071874;28;20020;-62
2021/07/30 05:52:13;;;;;;;2.85;2.15;;;;;;;;;;5071091;28;20274;-62
2021/07/30 05:54:38;;;;;;;4.75;2.13;;;;;;;;;;5071806;28;20075;-61
2021/07/30 05:57:03;;;;;;;3.08;2.28;;;;;;;;;;5071329;28;20039;-62
2021/07/30 05:59:28;;;;;;;3.03;1.83;;;;;;;;;;5071586;28;20119;-60
2021/07/30 06:01:54;;;;;;;2.40;2.08;;;;;;;;;;5071201;28;20012;-61
2021/07/30 06:04:19;;;;;;;4.30;2.08;;;;;;;;;;5071437;28;20085;-61
2021/07/30 06:06:44;;;;;;;3.67;1.85;;;;;;;;;;5071421;28;20494;-61
2021/07/30 06:09:09;;;;;;;2.13;1.65;;;;;;;;;;5071544;28;20108;-61
2021/07/30 06:11:34;;;;;;;4.18;2.15;;;;;;;;;;5070333;28;20071;-61
2021/07/30 06:14:00;;;;;;;2.28;1.60;;;;;;;;;;5071049;28;20104;-61
2021/07/30 06:16:25;;;;;;;5.57;1.73;;;;;;;;;;5071547;28;20400;-61
2021/07/30 06:18:50;;;;;;;2.92;1.50;;;;;;;;;;5071522;28;20043;-61
2021/07/30 06:21:19;;;;;;;3.85;1.58;;;;;;;;;;5070729;28;20530;-61
2021/07/30 06:23:44;;;;;;;2.05;1.60;;;;;;;;;;5071083;28;20031;-61
2021/07/30 06:26:10;;;;;;;2.15;1.30;;;;;;;;;;5071471;28;20025;-61
2021/07/30 06:28:35;;;;;;;2.42;0.98;;;;;;;;;;5071356;28;20021;-61
2021/07/30 06:31:00;;;;;;;2.30;0.93;;;;;;;;;;5071038;28;20024;-61
2021/07/30 06:33:28;;;;;;;2.63;1.10;;;;;;;;;;5070412;28;20048;-61
2021/07/30 06:35:54;;;;;;;5.10;1.00;;;;;;;;;;5070688;28;20023;-61
2021/07/30 06:38:19;;;;;;;2.88;0.80;;;;;;;;;;5071254;28;20032;-61
2021/07/30 06:40:45;;;;;;;1.05;0.73;;;;;;;;;;5070818;28;20020;-61
2021/07/30 06:43:10;;;;;;;2.15;0.80;;;;;;;;;;5070728;28;20021;-61
2021/07/30 06:45:36;;;;;;;2.05;0.80;;;;;;;;;;5071123;28;20017;-61
2021/07/30 06:48:01;;;;;;;2.37;0.83;;;;;;;;;;5074315;28;20061;-61
2021/07/30 06:50:26;;;;;;;3.27;0.77;;;;;;;;;;5074587;28;20787;-61
2021/07/30 06:52:51;;;;;;;2.97;0.97;;;;;;;;;;5062231;28;20259;-61
2021/07/30 06:55:17;;;;;;;1.97;0.83;;;;;;;;;;5054549;28;20256;-61
2021/07/30 06:57:42;;;;;;;1.63;0.57;;;;;;;;;;5076287;28;20269;-61
2021/07/30 07:00:07;;;;;;;1.43;0.87;;;;;;;;;;5094349;28;20103;-61
2021/07/30 07:02:32;;;;;;;0.70;0.70;;;;;;;;;;5083476;28;20297;-61
2021/07/30 07:04:58;;;;;;;1.37;0.67;;;;;;;;;;5074031;28;20058;-60
2021/07/30 07:07:24;;;;;;;2.80;0.60;;;;;;;;;;5074033;28;20271;-61
2021/07/30 07:09:50;;;;;;;3.75;0.77;;;;;;;;;;5074321;28;20775;-61
2021/07/30 07:12:15;;;;;;;4.78;0.98;;;;;;;;;;5074185;28;20082;-61
2021/07/30 07:14:41;;;;;;;1.52;0.70;;;;;;;;;;5073756;28;20501;-60
2021/07/30 07:17:06;;;;;;;4.20;1.05;;;;;;;;;;5063641;28;20070;-61
2021/07/30 07:19:31;;;;;;;2.85;0.95;;;;;;;;;;5054180;28;20356;-61
2021/07/30 07:21:56;;;;;;;1.87;0.60;;;;;;;;;;5058148;28;20060;-61
2021/07/30 07:24:21;;;;;;;2.20;0.60;;;;;;;;;;5073232;28;20269;-61
2021/07/30 07:26:46;;;;;;;3.25;0.88;;;;;;;;;;5073865;28;20259;-61
2021/07/30 07:29:12;;;;;;;2.57;0.80;;;;;;;;;;5073681;28;20033;-60
2021/07/30 07:31:37;;;;;;;1.58;0.80;;;;;;;;;;5074028;28;20339;-60
2021/07/30 07:34:02;;;;;;;1.15;0.85;;;;;;;;;;5073661;28;20099;-60
2021/07/30 07:36:28;;;;;;;3.83;0.90;;;;;;;;;;5073531;28;20020;-60
2021/07/30 07:38:53;;;;;;;3.78;0.65;;;;;;;;;;5073445;28;20350;-60
2021/07/30 07:41:19;;;;;;;1.48;0.88;;;;;;;;;;5073882;28;20036;-60
2021/07/30 07:43:44;;;;;;;3.70;0.90;;;;;;;;;;5073953;28;20044;-60
2021/07/30 07:46:09;;;;;;;3.00;0.93;;;;;;;;;;5073430;28;20273;-60
2021/07/30 07:48:34;;;;;;;1.38;0.77;;;;;;;;;;5073890;28;20020;-60
2021/07/30 07:51:00;;;;;;;1.02;0.60;;;;;;;;;;5073300;28;20473;-61
2021/07/30 07:53:25;;;;;;;2.05;0.70;;;;;;;;;;5073190;28;20385;-61
2021/07/30 07:56:04;;;;;;;2.97;0.73;;;;;;;;;;5073682;28;20035;-61
2021/07/30 07:58:30;;;;;;;1.20;0.40;;;;;;;;;;5072232;28;20032;-61
2021/07/30 08:00:55;;;;;;;0.95;0.68;;;;;;;;;;5073386;28;20443;-61
2021/07/30 08:03:20;;;;;;;4.32;1.00;;;;;;;;;;5072817;28;20059;-60
2021/07/30 08:05:45;;;;;;;1.00;0.50;;;;;;;;;;5073055;28;20158;-61
2021/07/30 08:08:10;;;;;;;1.10;0.50;;;;;;;;;;5072956;28;20088;-60
2021/07/30 08:10:36;;;;;;;2.87;1.07;;;;;;;;;;5072889;28;20279;-60
2021/07/30 08:13:01;;;;;;;3.33;1.10;;;;;;;;;;5054965;28;20639;-60
2021/07/30 08:15:26;;;;;;;3.35;0.80;;;;;;;;;;5055065;28;20274;-60
2021/07/30 08:17:51;;;;;;;1.97;0.80;;;;;;;;;;5054814;28;20136;-60
2021/07/30 08:20:16;;;;;;;3.23;0.90;;;;;;;;;;5072699;28;20633;-60
2021/07/30 08:22:43;;;;;;;1.77;0.80;;;;;;;;;;5072559;28;20271;-60
2021/07/30 08:25:09;;;;;;;3.08;1.17;;;;;;;;;;5073003;28;20281;-60
2021/07/30 08:27:35;;;;;;;1.90;0.80;;;;;;;;;;5055031;28;20024;-60
2021/07/30 08:30:00;;;;;;;2.55;0.95;;;;;;;;;;5072397;28;20031;-60
2021/07/30 08:32:25;;;;;;;1.65;0.73;;;;;;;;;;5072313;28;20374;-60
2021/07/30 08:34:50;;;;;;;1.58;0.70;;;;;;;;;;5072122;28;20436;-60
2021/07/30 08:37:15;;;;;;;1.87;0.80;;;;;;;;;;5054549;28;20467;-61
2021/07/30 08:39:41;;;;;;;4.87;0.93;;;;;;;;;;5072236;28;20330;-60
2021/07/30 08:42:06;;;;;;;0.73;0.40;;;;;;;;;;5072711;28;20251;-60
2021/07/30 08:44:32;;;;;;;1.00;0.55;;;;;;;;;;5072400;28;20254;-59
2021/07/30 08:46:58;;;;;;;2.63;0.73;;;;;;;;;;5071881;28;20089;-60
2021/07/30 08:49:23;;;;;;;1.20;0.70;;;;;;;;;;5072173;28;20022;-60
2021/07/30 08:52:03;;;;;;;1.20;0.80;;;;;;;;;;5071929;28;20493;-60
2021/07/30 08:54:28;;;;;;;1.88;0.50;;;;;;;;;;5072184;28;20024;-60
2021/07/30 08:56:54;;;;;;;2.57;0.57;;;;;;;;;;5071707;28;20378;-60
2021/07/30 08:59:20;;;;;;;1.10;0.53;;;;;;;;;;5071836;28;20282;-60
2021/07/30 09:01:51;;;;;;;1.05;0.50;;;;;;;;;;5072266;28;20321;-60
2021/07/30 09:04:26;;;;;;;1.67;0.70;;;;;;;;;;5071833;28;20526;-60
2021/07/30 09:06:55;;;;;;;4.78;0.80;;;;;;;;;;5071541;28;20461;-60
2021/07/30 09:09:20;;;;;;;4.30;0.90;;;;;;;;;;5053794;28;20123;-60
2021/07/30 09:11:45;;;;;;;2.80;0.90;;;;;;;;;;5053990;28;20107;-60
2021/07/30 09:14:12;;;;;;;2.25;0.35;;;;;;;;;;5071857;28;20048;-60
2021/07/30 09:16:48;;;;;;;2.15;0.40;;;;;;;;;;5071153;28;20016;-60
2021/07/30 09:19:13;;;;;;;3.00;0.70;;;;;;;;;;5071690;28;20090;-60
2021/07/30 09:21:38;;;;;;;1.95;0.70;;;;;;;;;;5053553;28;20048;-61
2021/07/30 09:24:06;;;;;;;3.17;1.00;;;;;;;;;;5071970;28;20021;-61
2021/07/30 09:26:37;;;;;;;3.10;0.95;;;;;;;;;;5050571;28;20095;-61
2021/07/30 09:29:05;;;;;;;1.27;0.85;;;;;;;;;;5062807;28;20024;-61
2021/07/30 09:31:39;;;;;;;0.85;0.60;;;;;;;;;;5071727;28;20482;-61
2021/07/30 09:34:16;;;;;;;1.38;0.98;;;;;;;;;;5071722;28;20028;-61
2021/07/30 09:36:44;;;;;;;1.77;0.60;;;;;;;;;;5069599;28;20025;-61
2021/07/30 09:39:10;;;;;;;3.55;0.90;;;;;;;;;;5071649;28;20086;-61
2021/07/30 09:41:35;;;;;;;1.23;0.52;;;;;;;;;;5071659;28;20017;-61
2021/07/30 09:44:04;;;;;;;1.35;0.70;;;;;;;;;;5071408;28;20430;-61
2021/07/30 09:46:29;;;;;;;3.55;1.48;;;;;;;;;;5071505;28;20139;-61
2021/07/30 09:48:54;;;;;;;2.20;0.60;;;;;;;;;;5071578;28;20449;-61
2021/07/30 09:51:20;;;;;;;3.15;0.50;;;;;;;;;;5071115;28;20274;-61
2021/07/30 09:53:45;;;;;;;1.20;0.70;;;;;;;;;;5051760;28;20032;-61
2021/07/30 09:56:16;;;;;;;2.13;0.80;;;;;;;;;;5066477;28;20048;-61
2021/07/30 09:58:43;;;;;;;1.70;0.68;;;;;;;;;;5071489;28;20016;-61
2021/07/30 10:01:11;;;;;;;4.93;0.70;;;;;;;;;;5071306;28;20020;-61
2021/07/30 10:03:37;;;;;;;3.70;1.00;;;;;;;;;;5071518;28;20070;-61
2021/07/30 10:06:02;;;;;;;1.20;0.80;;;;;;;;;;5049446;28;20045;-61
2021/07/30 10:08:28;;;;;;;1.43;0.80;;;;;;;;;;5057794;28;20044;-61
2021/07/30 10:10:53;;;;;;;5.82;0.50;;;;;;;;;;5066314;28;20302;-61
2021/07/30 10:13:24;;;;;;;2.25;1.00;;;;;;;;;;5071530;28;20127;-61
2021/07/30 10:15:50;;;;;;;2.47;1.15;;;;;;;;;;5077098;28;20032;-61
2021/07/30 10:18:19;;;;;;;1.05;0.95;;;;;;;;;;5054659;28;20013;-62
2021/07/30 10:20:44;;;;;;;2.03;0.82;;;;;;;;;;5071442;28;20099;-61
2021/07/30 10:23:12;;;;;;;1.85;0.90;;;;;;;;;;5075178;28;20020;-61
2021/07/30 10:25:38;;;;;;;2.78;0.82;;;;;;;;;;5074869;28;20346;-61
2021/07/30 10:28:20;;;;;;;2.28;1.05;;;;;;;;;;5056964;28;20378;-61
2021/07/30 10:30:52;;;;;;;1.90;0.90;;;;;;;;;;5074977;28;20016;-62
2021/07/30 10:33:37;;;;;;;0.77;0.73;;;;;;;;;;5074873;28;20052;-62
2021/07/30 10:36:06;;;;;;;1.45;0.63;;;;;;;;;;5074167;28;20047;-60
2021/07/30 10:38:32;;;;;;;1.30;1.02;;;;;;;;;;5074692;28;20031;-61
2021/07/30 10:40:57;;;;;;;3.30;1.02;;;;;;;;;;5074420;28;20017;-61
2021/07/30 10:43:23;;;;;;;1.90;0.83;;;;;;;;;;5074682;28;20023;-61
2021/07/30 10:46:08;;;;;;;2.08;1.00;;;;;;;;;;5074436;28;20460;-61
2021/07/30 10:48:34;;;;;;;3.45;1.38;;;;;;;;;;5066514;28;20428;-60
2021/07/30 10:51:05;;;;;;;2.47;1.25;;;;;;;;;;5074524;28;20090;-60
2021/07/30 10:53:50;;;;;;;2.97;1.00;;;;;;;;;;5074573;28;20078;-59
2021/07/30 10:56:21;;;;;;;2.67;1.00;;;;;;;;;;5072116;28;20120;-60
2021/07/30 10:58:49;;;;;;;0.85;0.68;;;;;;;;;;5074246;28;20481;-61
2021/07/30 11:01:21;;;;;;;0.80;0.77;;;;;;;;;;5056496;28;20366;-60
2021/07/30 11:03:49;;;;;;;1.20;0.82;;;;;;;;;;5073648;28;20021;-60
2021/07/30 11:06:15;;;;;;;5.43;1.10;;;;;;;;;;5073960;28;20044;-60
2021/07/30 11:08:58;;;;;;;2.47;0.77;;;;;;;;;;5073760;28;20523;-60
2021/07/30 11:11:42;;;;;;;2.10;1.10;;;;;;;;;;5072455;28;20032;-60
2021/07/30 11:14:08;;;;;;;2.42;0.75;;;;;;;;;;5066738;28;20331;-61
2021/07/30 11:16:33;;;;;;;1.92;1.00;;;;;;;;;;5073698;28;20023;-59
2021/07/30 11:19:00;;;;;;;1.83;0.60;;;;;;;;;;5055967;28;20283;-61
2021/07/30 11:21:28;;;;;;;1.75;0.80;;;;;;;;;;5073899;28;20428;-60
2021/07/30 11:23:53;;;;;;;3.13;1.00;;;;;;;;;;5073546;28;20024;-60
2021/07/30 11:26:19;;;;;;;0.70;0.60;;;;;;;;;;5074030;28;20227;-60
2021/07/30 11:28:48;;;;;;;1.50;0.88;;;;;;;;;;5073838;28;20379;-61
2021/07/30 11:31:14;;;;;;;0.70;0.63;;;;;;;;;;5073790;28;20424;-60
2021/07/30 11:33:41;;;;;;;0.70;0.40;;;;;;;;;;5050744;28;20701;-61
2021/07/30 11:36:12;;;;;;;1.75;0.80;;;;;;;;;;5053710;28;20017;-61
2021/07/30 11:38:47;;;;;;;3.10;0.80;;;;;;;;;;5058125;28;20096;-61
2021/07/30 11:41:14;;;;;;;0.70;0.70;;;;;;;;;;5073808;28;20025;-61
2021/07/30 11:44:00;;;;;;;1.20;0.60;;;;;;;;;;5073346;28;20029;-61
2021/07/30 11:46:25;;;;;;;1.50;0.75;;;;;;;;;;5073068;28;20036;-61
2021/07/30 11:48:51;;;;;;;1.80;0.70;;;;;;;;;;5073383;28;20023;-61
2021/07/30 11:51:18;;;;;;;0.90;0.68;;;;;;;;;;5051997;28;20017;-61
2021/07/30 11:53:43;;;;;;;2.50;0.70;;;;;;;;;;5066013;28;20036;-61
2021/07/30 11:56:08;;;;;;;2.63;0.70;;;;;;;;;;5073725;28;20580;-60
2021/07/30 11:58:33;;;;;;;2.30;0.83;;;;;;;;;;5072833;28;20028;-60
2021/07/30 12:01:09;;;;;;;5.10;1.30;;;;;;;;;;5073155;28;20381;-61
2021/07/30 12:03:34;;;;;;;2.47;1.10;;;;;;;;;;5055230;28;20012;-60
2021/07/30 12:06:01;;;;;;;0.67;0.63;;;;;;;;;;5072448;28;20410;-60
2021/07/30 12:08:26;;;;;;;0.85;0.70;;;;;;;;;;5073009;28;20028;-60
2021/07/30 12:10:51;;;;;;;1.65;0.77;;;;;;;;;;5072818;28;20020;-60
2021/07/30 12:13:18;;;;;;;0.80;0.80;;;;;;;;;;5070231;28;20381;-60
2021/07/30 12:15:43;;;;;;;12.00;1.75;;;;;;;;;;5057075;28;20021;-59
2021/07/30 12:18:09;;;;;;;14.88;1.90;;;;;;;;;;5053196;28;20100;-60
2021/07/30 12:20:35;;;;;;;4.25;1.00;;;;;;;;;;5061850;28;20071;-60
2021/07/30 12:23:07;;;;;;;1.90;1.00;;;;;;;;;;5051376;28;20033;-60
2021/07/30 12:25:45;;;;;;;4.75;1.42;;;;;;;;;;5067119;28;20024;-60
2021/07/30 12:28:11;;;;;;;4.47;1.48;;;;;;;;;;5073213;28;20428;-60
2021/07/30 12:30:38;;;;;;;2.63;0.80;;;;;;;;;;5072703;28;20112;-60
2021/07/30 12:33:20;;;;;;;1.52;0.90;;;;;;;;;;5072438;28;20017;-60
2021/07/30 12:35:45;;;;;;;1.85;0.82;;;;;;;;;;5072571;28;20094;-61
2021/07/30 12:38:11;;;;;;;10.63;1.93;;;;;;;;;;5072592;28;20031;-60
2021/07/30 12:40:38;;;;;;;5.75;1.10;;;;;;;;;;5072723;28;20283;-60
2021/07/30 12:43:18;;;;;;;2.63;1.02;;;;;;;;;;5072160;28;20482;-61
2021/07/30 12:45:44;;;;;;;2.90;0.85;;;;;;;;;;5072293;28;20134;-60
2021/07/30 12:48:15;;;;;;;2.42;0.75;;;;;;;;;;5072430;28;20074;-57
2021/07/30 12:50:40;;;;;;;4.75;1.00;;;;;;;;;;5072200;28;20081;-60
2021/07/30 12:53:11;;;;;;;0.80;0.80;;;;;;;;;;5071789;28;20028;-60
2021/07/30 12:55:55;;;;;;;3.28;0.90;;;;;;;;;;5072190;28;20765;-60
2021/07/30 12:58:21;;;;;;;11.40;1.90;;;;;;;;;;5072281;28;20024;-60
2021/07/30 13:00:50;;;;;;;0.88;0.88;;;;;;;;;;5072194;28;20081;-61
2021/07/30 13:03:15;;;;;;;7.15;1.80;;;;;;;;;;5071704;28;20027;-61
2021/07/30 13:05:40;;;;;;;4.23;1.50;;;;;;;;;;5071653;28;20040;-61
2021/07/30 13:08:07;;;;;;;1.75;0.90;;;;;;;;;;5053971;28;20631;-61
2021/07/30 13:10:33;;;;;;;11.95;2.30;;;;;;;;;;5072186;28;20542;-58
2021/07/30 13:12:58;;;;;;;3.30;1.65;;;;;;;;;;5057257;28;20068;-60
2021/07/30 13:15:23;;;;;;;2.70;0.93;;;;;;;;;;5063712;28;20062;-59
2021/07/30 13:17:48;;;;;;;0.70;0.60;;;;;;;;;;5053934;28;20343;-60
2021/07/30 13:20:13;;;;;;;1.13;0.80;;;;;;;;;;5071958;28;20107;-60
2021/07/30 13:22:39;;;;;;;1.40;0.90;;;;;;;;;;5071681;28;20038;-60
2021/07/30 13:25:06;;;;;;;1.00;0.90;;;;;;;;;;5072126;28;20266;-60
2021/07/30 13:27:31;;;;;;;2.08;1.05;;;;;;;;;;5054114;28;20707;-60
2021/07/30 13:29:56;;;;;;;1.37;0.80;;;;;;;;;;5072059;28;20095;-60
2021/07/30 13:32:21;;;;;;;3.10;0.83;;;;;;;;;;5072233;28;20423;-60
2021/07/30 13:34:46;;;;;;;1.63;1.00;;;;;;;;;;5074851;28;20316;-60
2021/07/30 13:37:12;;;;;;;1.93;0.90;;;;;;;;;;5071584;28;20478;-60
2021/07/30 13:39:37;;;;;;;1.10;1.00;;;;;;;;;;5071873;28;20032;-61
2021/07/30 13:42:02;;;;;;;0.73;0.70;;;;;;;;;;5071712;28;20024;-60
2021/07/30 13:44:27;;;;;;;2.08;1.02;;;;;;;;;;5071435;28;20020;-61
2021/07/30 13:46:53;;;;;;;1.00;0.90;;;;;;;;;;5071927;28;20020;-61
2021/07/30 13:49:18;;;;;;;3.43;1.00;;;;;;;;;;5071870;28;20802;-61
2021/07/30 13:51:43;;;;;;;2.07;1.20;;;;;;;;;;5071298;28;20266;-60
2021/07/30 13:54:09;;;;;;;1.03;0.90;;;;;;;;;;5071135;28;20028;-60
2021/07/30 13:56:35;;;;;;;1.00;1.00;;;;;;;;;;5073559;28;20051;-60
2021/07/30 13:59:00;;;;;;;1.83;0.90;;;;;;;;;;5075547;28;20165;-61
2021/07/30 14:01:25;;;;;;;2.37;0.90;;;;;;;;;;5075735;28;20103;-61
2021/07/30 14:03:50;;;;;;;1.63;1.10;;;;;;;;;;5075143;28;20013;-60
2021/07/30 14:06:16;;;;;;;2.60;1.00;;;;;;;;;;5075115;28;20290;-61
2021/07/30 14:08:41;;;;;;;1.75;1.10;;;;;;;;;;5075849;28;20024;-60
2021/07/30 14:11:11;;;;;;;1.63;1.10;;;;;;;;;;5075738;28;20048;-61
2021/07/30 14:13:36;;;;;;;1.60;0.90;;;;;;;;;;5059876;28;20353;-60
2021/07/30 14:16:01;;;;;;;1.10;1.00;;;;;;;;;;5075159;28;20151;-61
2021/07/30 14:18:26;;;;;;;0.90;0.90;;;;;;;;;;5074815;28;20016;-60
2021/07/30 14:20:51;;;;;;;1.77;1.07;;;;;;;;;;5074919;28;20109;-60
2021/07/30 14:23:16;;;;;;;1.10;1.00;;;;;;;;;;5075165;28;20021;-61
2021/07/30 14:25:42;;;;;;;1.63;0.63;;;;;;;;;;5075335;28;20086;-61
2021/07/30 14:28:07;;;;;;;2.00;1.10;;;;;;;;;;5074708;28;20044;-61
2021/07/30 14:30:33;;;;;;;1.33;0.93;;;;;;;;;;5075240;28;20255;-61
2021/07/30 14:32:58;;;;;;;1.50;1.00;;;;;;;;;;5074802;28;20046;-61
2021/07/30 14:35:24;;;;;;;3.23;1.20;;;;;;;;;;5074850;28;20425;-60
2021/07/30 14:37:50;;;;;;;1.48;0.73;;;;;;;;;;5074868;28;20482;-60
2021/07/30 14:40:15;;;;;;;2.10;0.82;;;;;;;;;;5074800;28;20427;-60
2021/07/30 14:42:41;;;;;;;1.40;0.97;;;;;;;;;;5074634;28;20100;-60
2021/07/30 14:45:07;;;;;;;1.13;0.82;;;;;;;;;;5073847;28;20043;-60